Latest Coastal Weather Observations for Norah Head

IDN60701

Issued at 12:41 pm EST Monday 3 August 2015 (issued every 10 minutes, with the page automatically refreshed every 10 minutes)

About coastal observations | Map of coastal stations | Coastal observations for NSW | Marine services | Other Formats
Station Details ID: 061366 Name: NORAH HEAD AWS Lat: -33.28 Lon: 151.58 Height: 18.8 m
Data from the previous 72 hours. | See also: Recent months at Norah Head
Date/Time
EST
Temp

°C
Wind Pressure Rain
since 9am
mm
Weather Cloud Vis
km
Sea
Height
m
Swell
Dir
 
Speed
knots
Gust
knots
hPa Trend Height
m
Period
s
Dir
03/12:30pm 17.4 WNW 6 14 1014.0 - 0.0 - - - - - - -
03/12:00pm 17.3 WNW 6 12 1014.5 - 0.0 - - - - - - -
03/11:30am 16.6 NW 6 13 1015.0 - 0.0 - - - - - - -
03/11:00am 15.5 WNW 7 14 1015.3 - 0.0 - - - - - - -
03/10:30am 15.4 NW 5 11 1015.7 - 0.0 - - - - - - -
03/10:00am 14.7 WNW 6 12 1015.7 - 0.0 - - - - - - -
03/09:30am 13.9 WNW 7 15 1015.6 - 0.0 - - - - - - -
03/09:00am 13.2 WNW 8 17 1015.4 - 0.0 - - - - - - -
03/08:30am 12.6 W 6 13 1015.4 - 0.0 - - - - - - -
03/08:00am 11.6 WNW 6 12 1015.3 - 0.0 - - - - - - -
03/07:30am 10.9 WNW 6 15 1015.0 - 0.0 - - - - - - -
03/07:00am 10.9 WNW 6 9 1014.8 - 0.0 - - - - - - -
03/06:30am 11.1 WNW 5 11 1014.5 - 0.0 - - - - - - -
03/06:00am 11.6 NW 3 8 1013.9 - 0.0 - - - - - - -
03/05:30am 12.6 WNW 5 10 1013.6 - 0.0 - - - - - - -
03/05:00am 13.2 WSW 5 9 1013.5 - 0.0 - - - - - - -
03/04:30am 14.1 S 7 11 1013.3 - 0.0 - - - - - - -
03/04:00am 14.8 SW 6 8 1013.1 - 0.0 - - - - - - -
03/03:30am 14.8 SW 5 8 1012.9 - 0.0 - - - - - - -
03/03:00am 15.3 W 4 7 1012.6 - 0.0 - - - - - - -
03/02:30am 15.8 W 5 9 1012.5 - 0.0 - - - - - - -
03/02:00am 16.2 W 5 9 1012.5 - 0.0 - - - - - - -
03/01:30am 16.7 W 6 11 1012.6 - 0.0 - - - - - - -
03/01:00am 16.4 W 5 8 1012.7 - 0.0 - - - - - - -
03/12:30am 17.0 W 6 11 1012.7 - 0.0 - - - - - - -
03/12:00am 16.8 W 5 8 1012.9 - 0.0 - - - - - - -
 
Date/Time
EST
Temp

°C
Wind Pressure Rain
since 9am
mm
Weather Cloud Vis
km
Sea
Height
m
Swell
Dir
 
Speed
knots
Gust
knots
hPa Trend Height
m
Period
s
Dir
02/11:30pm 17.0 WSW 6 9 1013.1 - 0.0 - - - - - - -
02/11:00pm 17.8 WNW 5 9 1012.7 - 0.0 - - - - - - -
02/10:30pm 16.9 WNW 3 6 1012.9 - 0.0 - - - - - - -
02/10:00pm 17.3 WNW 3 5 1013.1 - 0.0 - - - - - - -
02/09:30pm 17.7 WNW 3 4 1013.1 - 0.0 - - - - - - -
02/09:00pm 18.7 WNW 4 6 1012.7 - 0.0 - - - - - - -
02/08:30pm 19.2 W 4 6 1012.9 - 0.0 - - - - - - -
02/08:00pm 19.8 WNW 4 7 1013.3 - 0.0 - - - - - - -
02/07:30pm 20.0 W 5 7 1012.9 - 0.0 - - - - - - -
02/07:00pm 20.9 WNW 3 5 1012.4 - 0.0 - - - - - - -
02/06:30pm 21.1 WNW 5 10 1011.7 - 0.0 - - - - - - -
02/06:00pm 21.6 NW 8 12 1010.9 - 0.0 - - - - - - -
02/05:30pm 21.9 NW 7 14 1010.6 - 0.0 - - - - - - -
02/05:00pm 22.2 NW 8 16 1010.2 - 0.0 - - - - - - -
02/04:30pm 22.8 NW 6 11 1010.1 - 0.0 - - - - - - -
02/04:00pm 23.7 WNW 4 8 1010.3 - 0.0 - - - - - - -
02/03:30pm 24.3 NW 3 7 1010.5 - 0.0 - - - - - - -
02/03:00pm 24.1 WNW 5 12 1010.4 - 0.0 - - - - - - -
02/02:30pm 24.3 WNW 5 12 1010.5 - 0.0 - - - - - - -
02/02:00pm 24.3 NW 7 15 1010.4 - 0.0 - - - - - - -
02/01:30pm 25.3 NW 10 17 1010.7 - 0.0 - - - - - - -
02/01:00pm 26.7 NW 8 14 1011.1 - 0.0 - - - - - - -
02/12:30pm 26.3 NNW 8 13 1011.6 - 0.0 - - - - - - -
02/12:00pm 26.2 NNW 10 13 1012.4 - 0.0 - - - - - - -
02/11:30am 25.4 NNW 5 9 1013.2 - 0.0 - - - - - - -
02/11:00am 23.7 NNW 6 10 1013.9 - 0.0 - - - - - - -
02/10:30am 22.0 N 7 9 1014.6 - 0.0 - - - - - - -
02/10:00am 21.8 NNW 4 5 1015.2 - 0.0 - - - - - - -
02/09:30am 20.7 N 8 9 1015.3 - 0.0 - - - - - - -
02/09:00am 19.4 N 5 6 1015.6 - 0.0 - - - - - - -
02/08:30am 18.7 N 6 6 1015.8 - 0.0 - - - - - - -
02/08:00am 17.5 N 9 11 1015.9 - 0.0 - - - - - - -
02/07:30am 15.8 NNW 6 7 1015.7 - 0.0 - - - - - - -
02/07:00am 14.6 NNW 3 4 1015.7 - 0.0 - - - - - - -
02/06:30am 14.9 NNW 4 5 1015.7 - 0.0 - - - - - - -
02/06:00am 15.3 NW 5 7 1015.9 - 0.0 - - - - - - -
02/05:30am 16.7 NW 5 8 1016.0 - 0.0 - - - - - - -
02/05:00am 17.1 WNW 6 9 1016.0 - 0.0 - - - - - - -
02/04:30am 17.3 WNW 7 10 1016.0 - 0.0 - - - - - - -
02/04:00am 17.4 WNW 6 10 1015.9 - 0.0 - - - - - - -
02/03:30am 17.0 WNW 7 10 1016.0 - 0.0 - - - - - - -
02/03:00am 16.5 WNW 5 7 1016.2 - 0.0 - - - - - - -
02/02:30am 15.6 NW 3 4 1016.7 - 0.0 - - - - - - -
02/02:00am 15.4 NW 3 4 1016.9 - 0.0 - - - - - - -
02/01:30am 15.7 NW 3 5 1017.0 - 0.0 - - - - - - -
02/01:00am 16.8 WNW 5 7 1016.6 - 0.0 - - - - - - -
02/12:30am 15.7 NW 2 4 1016.8 - 0.0 - - - - - - -
02/12:00am 15.4 NW 4 5 1017.1 - 0.0 - - - - - - -
 
Date/Time
EST
Temp

°C
Wind Pressure Rain
since 9am
mm
Weather Cloud Vis
km
Sea
Height
m
Swell
Dir
 
Speed
knots
Gust
knots
hPa Trend Height
m
Period
s
Dir
01/11:30pm 16.4 NW 3 5 1017.5 - 0.0 - - - - - - -
01/11:00pm 16.6 WNW 3 5 1017.5 - 0.0 - - - - - - -
01/10:30pm 17.5 WNW 4 6 1017.6 - 0.0 - - - - - - -
01/10:00pm 17.1 WNW 5 8 1017.8 - 0.0 - - - - - - -
01/09:30pm 16.0 NNW 6 8 1017.6 - 0.0 - - - - - - -
01/09:00pm 16.5 NNW 10 12 1017.4 - 0.0 - - - - - - -
01/08:30pm 16.5 NNW 7 9 1017.5 - 0.0 - - - - - - -
01/08:00pm 15.8 NW 4 6 1017.7 - 0.0 - - - - - - -
01/07:30pm 16.4 NW 5 7 1017.6 - 0.0 - - - - - - -
01/07:00pm 16.5 NW 4 5 1017.5 - 0.0 - - - - - - -
01/06:30pm 18.0 N 4 6 1016.9 - 0.0 - - - - - - -
01/06:00pm 17.7 NNW 3 4 1017.0 - 0.0 - - - - - - -
01/05:30pm 18.7 WNW 3 5 1016.7 - 0.0 - - - - - - -
01/05:00pm 19.4 NW 4 7 1016.2 - 0.0 - - - - - - -
01/04:30pm 20.5 WNW 4 9 1016.1 - 0.0 - - - - - - -
01/04:00pm 21.0 WNW 6 19 1015.9 - 0.0 - - - - - - -
01/03:30pm 21.0 WNW 5 10 1016.1 - 0.0 - - - - - - -
01/03:00pm 21.8 NW 7 14 1016.1 - 0.0 - - - - - - -
01/02:30pm 22.5 NW 6 14 1015.9 - 0.0 - - - - - - -
01/02:00pm 22.5 WNW 6 12 1015.8 - 0.0 - - - - - - -
01/01:30pm 21.8 NW 6 12 1015.9 - 0.0 - - - - - - -
01/01:00pm 21.6 NW 6 13 1016.2 - 0.0 - - - - - - -
01/12:30pm 21.5 WNW 6 12 1016.7 - 0.0 - - - - - - -
01/12:00pm 21.3 WNW 5 10 1017.4 - 0.0 - - - - - - -
01/11:30am 20.7 NW 4 9 1017.9 - 0.0 - - - - - - -
01/11:00am 20.0 NNW 8 12 1018.3 - 0.0 - - - - - - -
01/10:30am 18.7 NNW 14 17 1018.8 - 0.0 - - - - - - -
01/10:00am 17.4 N 13 16 1019.2 - 0.0 - - - - - - -
01/09:30am 15.7 N 13 15 1019.3 - 0.0 - - - - - - -
01/09:00am 15.8 NNW 11 14 1019.6 - 0.0 - - - - - - -
01/08:30am 15.2 NNW 11 14 1019.2 - 0.0 - - - - - - -
01/08:00am 12.5 NW 9 13 1019.1 - 0.0 - - - - - - -
01/07:30am 12.7 NNW 8 12 1019.1 - 0.0 - - - - - - -
01/07:00am 12.2 NNW 9 11 1018.8 - 0.0 - - - - - - -
01/06:30am 11.7 NW 8 11 1018.6 - 0.0 - - - - - - -
01/06:00am 11.1 NNW 10 12 1018.4 - 0.0 - - - - - - -
01/05:30am 11.2 NNW 8 10 1018.5 - 0.0 - - - - - - -
01/05:00am 10.9 NNW 7 8 1018.9 - 0.0 - - - - - - -
01/04:30am 10.3 NW 5 7 1019.1 - 0.0 - - - - - - -
01/04:00am 10.7 NNW 7 9 1019.1 - 0.0 - - - - - - -
01/03:30am 10.6 NW 7 9 1019.2 - 0.0 - - - - - - -
01/03:00am 10.5 NW 5 8 1019.5 - 0.0 - - - - - - -
01/02:30am 10.9 NW 6 10 1019.7 - 0.0 - - - - - - -
01/02:00am 11.1 NW 5 7 1019.9 - 0.0 - - - - - - -
01/01:30am 11.2 NW 6 8 1020.1 - 0.0 - - - - - - -
01/01:00am 11.6 NW 6 8 1020.5 - 0.0 - - - - - - -
01/12:30am 11.8 NW 5 7 1020.9 - 0.0 - - - - - - -
01/12:00am 12.9 NW 7 10 1021.3 - 0.0 - - - - - - -
 
Date/Time
EST
Temp

°C
Wind Pressure Rain
since 9am
mm
Weather Cloud Vis
km
Sea
Height
m
Swell
Dir
 
Speed
knots
Gust
knots
hPa Trend Height
m
Period
s
Dir
31/11:30pm 13.0 NNW 6 7 1021.5 - 0.0 - - - - - - -
31/11:00pm 13.6 NNW 9 11 1021.6 - 0.0 - - - - - - -
31/10:30pm 13.7 NNW 10 13 1021.7 - 0.0 - - - - - - -
31/10:00pm 13.9 NNW 8 10 1021.6 - 0.0 - - - - - - -
31/09:30pm 14.6 NNW 7 9 1021.3 - 0.0 - - - - - - -
31/09:00pm 16.0 N 12 17 1021.1 - 0.0 - - - - - - -
31/08:30pm 16.4 NE 12 14 1020.9 - 0.0 - - - - - - -
31/08:00pm 16.4 NE 12 14 1021.0 - 0.0 - - - - - - -
31/07:30pm 16.4 NE 11 13 1020.9 - 0.0 - - - - - - -
31/07:00pm 16.1 NE 11 12 1020.8 - 0.0 - - - - - - -
31/06:30pm 15.8 NE 9 11 1020.7 - 0.0 - - - - - - -
31/06:00pm 15.5 ENE 8 9 1020.5 - 0.0 - - - - - - -
31/05:30pm 16.5 E 6 7 1019.9 - 0.0 - - - - - - -
31/05:00pm 16.7 E 6 7 1019.8 - 0.0 - - - - - - -
31/04:30pm 16.9 E 6 7 1019.8 - 0.0 - - - - - - -
31/04:00pm 16.9 ENE 5 8 1019.7 - 0.0 - - - - - - -
31/03:30pm 17.6 ENE 6 8 1019.7 - 0.0 - - - - - - -
31/03:00pm 18.3 ESE 4 6 1019.7 - 0.0 - - - - - - -
31/02:30pm 18.6 ESE 4 5 1019.8 - 0.0 - - - - - - -
31/02:00pm 19.2 ESE 2 3 1020.0 - 0.0 - - - - - - -
31/01:30pm 19.3 CALM 0 3 1020.1 - 0.0 - - - - - - -
31/01:00pm 19.4 S 2 7 1020.4 - 0.0 - - - - - - -

Other Formats:

Comma delimited format used in spreadsheet applications
http://www.bom.gov.au/fwo/IDN60701/IDN60701.95770.axf

JavaScript Object Notation format (JSON) in row-major order
http://www.bom.gov.au/fwo/IDN60701/IDN60701.95770.json